createdAt,value
2023-05-20T00:00:57.456Z,23.70
2023-05-20T00:03:25.398Z,27.70
2023-05-20T00:05:53.189Z,21.65
2023-05-20T00:08:20.907Z,19.52
2023-05-20T00:10:48.475Z,20.60
2023-05-20T00:13:16.126Z,28.90
2023-05-20T00:15:43.768Z,21.90
2023-05-20T00:18:11.420Z,22.38
2023-05-20T00:20:39.112Z,28.88
2023-05-20T00:23:06.852Z,22.10
2023-05-20T00:25:34.558Z,22.90
2023-05-20T00:28:02.399Z,26.13
2023-05-20T00:30:29.973Z,27.65
2023-05-20T00:32:57.609Z,26.13
2023-05-20T00:35:25.428Z,24.48
2023-05-20T00:37:53.009Z,24.65
2023-05-20T00:40:21.945Z,28.65
2023-05-20T00:42:49.584Z,32.85
2023-05-20T00:45:17.615Z,21.85
2023-05-20T00:47:45.504Z,23.00
2023-05-20T00:50:13.539Z,24.75
2023-05-20T00:52:45.071Z,22.70
2023-05-20T00:55:12.756Z,19.92
2023-05-20T00:57:40.878Z,24.27
2023-05-20T01:00:10.561Z,24.00
2023-05-20T01:02:38.526Z,23.90
2023-05-20T01:05:09.982Z,24.80
2023-05-20T01:07:37.718Z,20.40
2023-05-20T01:10:05.745Z,21.25
2023-05-20T01:12:54.372Z,19.25
2023-05-20T01:15:23.271Z,22.77
2023-05-20T01:17:54.715Z,25.00
2023-05-20T01:22:53.297Z,22.55
2023-05-20T01:25:21.480Z,22.95
2023-05-20T01:27:50.046Z,18.77
2023-05-20T01:30:18.311Z,19.25
2023-05-20T01:32:55.646Z,23.07
2023-05-20T01:35:23.918Z,17.80
2023-05-20T01:37:53.513Z,18.13
2023-05-20T01:40:22.353Z,18.92
2023-05-20T01:42:53.337Z,20.92
2023-05-20T01:45:21.578Z,20.17
2023-05-20T01:47:50.707Z,17.42
2023-05-20T01:50:18.488Z,20.63
2023-05-20T01:52:46.165Z,18.10
2023-05-20T01:55:14.742Z,18.00
2023-05-20T01:57:42.978Z,20.27
2023-05-20T02:00:11.617Z,17.52
2023-05-20T02:02:41.743Z,17.70
2023-05-20T02:05:47.447Z,15.82
2023-05-20T02:08:15.002Z,15.63
2023-05-20T02:10:42.932Z,20.83
2023-05-20T02:13:10.966Z,23.08
2023-05-20T02:15:42.317Z,22.50
2023-05-20T02:18:10.032Z,17.13
2023-05-20T02:20:37.751Z,21.02
2023-05-20T02:23:06.032Z,24.23
2023-05-20T02:25:33.660Z,20.40
2023-05-20T02:28:01.665Z,15.30
2023-05-20T02:30:29.300Z,19.60
2023-05-20T02:32:58.091Z,15.20
2023-05-20T02:35:25.792Z,18.60
2023-05-20T02:37:54.159Z,25.40
2023-05-20T02:40:23.087Z,28.38
2023-05-20T02:42:51.252Z,16.73
2023-05-20T02:45:19.116Z,23.60
2023-05-20T02:47:47.263Z,26.23
2023-05-20T02:50:15.215Z,31.95
2023-05-20T02:52:43.154Z,32.22
2023-05-20T02:55:11.085Z,37.85
2023-05-20T02:57:39.326Z,37.22
2023-05-20T03:00:13.213Z,34.75
2023-05-20T03:02:41.351Z,41.30
2023-05-20T03:05:09.429Z,41.08
2023-05-20T03:07:37.277Z,42.95
2023-05-20T03:10:08.193Z,39.55
2023-05-20T03:12:35.923Z,37.15
2023-05-20T03:15:03.910Z,34.22
2023-05-20T03:17:32.588Z,26.13
2023-05-20T03:20:01.341Z,25.13
2023-05-20T03:22:29.288Z,23.02
2023-05-20T03:24:57.151Z,26.35
2023-05-20T03:27:26.613Z,27.33
2023-05-20T03:29:55.348Z,25.27
2023-05-20T03:32:23.316Z,24.55
2023-05-20T03:34:51.165Z,27.85
2023-05-20T03:37:19.132Z,28.58
2023-05-20T03:39:47.045Z,31.25
2023-05-20T03:42:15.054Z,28.33
2023-05-20T03:44:43.188Z,26.00
2023-05-20T03:47:11.281Z,30.13
2023-05-20T03:49:41.191Z,30.00
2023-05-20T03:52:09.151Z,26.20
2023-05-20T03:54:37.463Z,28.65
2023-05-20T03:57:06.969Z,24.70
2023-05-20T03:59:34.977Z,25.85
2023-05-20T04:02:03.307Z,22.92
2023-05-20T04:04:31.344Z,27.58
2023-05-20T04:07:03.191Z,31.38
2023-05-20T04:09:31.702Z,29.98
2023-05-20T04:11:59.300Z,32.97
2023-05-20T04:14:27.053Z,38.97
2023-05-20T04:16:55.102Z,32.40
2023-05-20T04:19:24.304Z,31.23
2023-05-20T04:21:51.871Z,28.13
2023-05-20T04:24:19.589Z,32.58
2023-05-20T04:26:48.231Z,29.95
2023-05-20T04:29:16.139Z,25.00
2023-05-20T04:31:45.726Z,25.98
2023-05-20T04:34:15.159Z,30.30
2023-05-20T04:36:43.603Z,29.55
2023-05-20T04:39:11.217Z,31.45
2023-05-20T04:41:39.949Z,29.33
2023-05-20T04:44:08.261Z,29.98
2023-05-20T04:46:35.991Z,25.05
2023-05-20T04:49:04.490Z,32.88
2023-05-20T04:51:32.108Z,32.80
2023-05-20T04:53:59.739Z,35.03
2023-05-20T04:56:29.659Z,28.35
2023-05-20T04:58:57.292Z,23.35
2023-05-20T05:01:24.851Z,24.90
2023-05-20T05:03:52.659Z,26.98
2023-05-20T05:06:22.095Z,29.48
2023-05-20T05:08:49.700Z,28.40
2023-05-20T05:11:17.477Z,24.63
2023-05-20T05:13:46.445Z,28.38
2023-05-20T05:16:14.828Z,34.10
2023-05-20T05:18:43.458Z,30.38
2023-05-20T05:21:11.376Z,34.10
2023-05-20T05:23:39.256Z,33.78
2023-05-20T05:26:06.915Z,33.70
2023-05-20T05:28:34.563Z,39.53
2023-05-20T05:31:02.411Z,31.38
2023-05-20T05:33:31.424Z,32.95
2023-05-20T05:35:59.496Z,36.17
2023-05-20T05:38:27.714Z,30.98
2023-05-20T05:40:55.323Z,29.80
2023-05-20T05:43:23.682Z,31.00
2023-05-20T05:45:52.494Z,34.42
2023-05-20T05:48:22.723Z,26.85
2023-05-20T05:50:50.448Z,30.33
2023-05-20T05:53:19.981Z,26.90
2023-05-20T05:55:49.529Z,27.60
2023-05-20T05:58:17.759Z,29.38
2023-05-20T06:00:46.161Z,23.38
2023-05-20T06:03:14.021Z,26.15
2023-05-20T06:05:46.107Z,25.30
2023-05-20T06:08:13.897Z,27.23
2023-05-20T06:10:41.505Z,24.80
2023-05-20T06:13:09.193Z,23.85
2023-05-20T06:15:36.996Z,29.00
2023-05-20T06:18:04.789Z,27.15
2023-05-20T06:20:33.578Z,26.10
2023-05-20T06:23:01.448Z,22.73
2023-05-20T06:25:38.379Z,20.92
2023-05-20T06:28:08.297Z,18.98
2023-05-20T06:30:36.398Z,19.02
2023-05-20T06:33:04.326Z,22.02
2023-05-20T06:35:34.914Z,17.60
2023-05-20T06:38:03.852Z,19.20
2023-05-20T06:40:31.582Z,21.98
2023-05-20T06:42:59.207Z,15.88
2023-05-20T06:45:48.563Z,20.45
2023-05-20T06:48:42.489Z,18.58
2023-05-20T06:51:10.359Z,18.83
2023-05-20T06:53:39.199Z,14.50
2023-05-20T06:56:07.217Z,14.65
2023-05-20T06:58:34.891Z,16.75
2023-05-20T07:01:02.562Z,16.40
2023-05-20T07:03:31.013Z,15.50
2023-05-20T07:05:59.164Z,17.45
2023-05-20T07:08:26.851Z,14.38
2023-05-20T07:10:57.015Z,13.23
2023-05-20T07:13:26.226Z,16.33
2023-05-20T07:15:54.090Z,15.48
2023-05-20T07:18:21.892Z,20.40
2023-05-20T07:20:54.383Z,16.88
2023-05-20T07:23:42.125Z,14.27
2023-05-20T07:26:10.689Z,15.65
2023-05-20T07:28:39.215Z,12.95
2023-05-20T07:31:07.047Z,18.20
2023-05-20T07:33:40.318Z,19.10
2023-05-20T07:36:11.331Z,17.80
2023-05-20T07:38:45.038Z,15.88
2023-05-20T07:41:22.608Z,10.18
2023-05-20T07:43:51.447Z,15.43
2023-05-20T07:46:20.274Z,12.60
2023-05-20T07:48:48.786Z,13.98
2023-05-20T07:51:16.899Z,13.60
2023-05-20T07:53:44.816Z,12.02
2023-05-20T07:56:12.588Z,13.95
2023-05-20T07:58:43.861Z,15.23
2023-05-20T08:01:11.692Z,11.20
2023-05-20T08:03:39.530Z,12.20
2023-05-20T08:06:12.371Z,10.82
2023-05-20T08:08:43.194Z,11.88
2023-05-20T08:11:18.586Z,11.77
2023-05-20T08:13:46.369Z,16.67
2023-05-20T08:16:14.552Z,10.88
2023-05-20T08:18:44.073Z,11.88
2023-05-20T08:21:12.658Z,9.57
2023-05-20T08:23:40.895Z,12.05
2023-05-20T08:26:08.833Z,17.00
2023-05-20T08:28:40.603Z,12.77
2023-05-20T08:31:08.788Z,13.57
2023-05-20T08:33:36.642Z,10.15
2023-05-20T08:36:04.393Z,14.10
2023-05-20T08:38:31.991Z,12.80
2023-05-20T08:41:00.810Z,10.25
2023-05-20T08:43:30.411Z,14.23
2023-05-20T08:45:59.521Z,14.55
2023-05-20T08:48:31.231Z,11.47
2023-05-20T08:50:59.881Z,10.57
2023-05-20T08:53:27.997Z,10.98
2023-05-20T08:56:02.767Z,12.85
2023-05-20T08:58:32.840Z,10.13
2023-05-20T09:01:01.000Z,12.65
2023-05-20T09:03:28.943Z,11.25
2023-05-20T09:06:05.063Z,12.57
2023-05-20T09:08:33.763Z,10.75
2023-05-20T09:11:01.598Z,12.93
2023-05-20T09:13:32.749Z,12.02
2023-05-20T09:16:04.576Z,9.15
2023-05-20T09:18:32.990Z,11.88
2023-05-20T09:21:07.104Z,10.98
2023-05-20T09:23:38.574Z,11.73
2023-05-20T09:26:06.295Z,14.60
2023-05-20T09:28:36.086Z,12.93
2023-05-20T09:31:06.630Z,11.48
2023-05-20T09:33:35.817Z,10.63
2023-05-20T09:36:10.861Z,12.77
2023-05-20T09:38:40.216Z,11.45
2023-05-20T09:41:15.498Z,12.13
2023-05-20T09:43:44.650Z,13.25
2023-05-20T09:46:12.379Z,11.85
2023-05-20T09:48:40.305Z,11.35
2023-05-20T09:51:08.844Z,10.70
2023-05-20T09:53:36.598Z,10.90
2023-05-20T09:56:04.451Z,11.88
2023-05-20T09:58:35.816Z,10.70
2023-05-20T10:03:32.254Z,9.68
2023-05-20T10:06:12.633Z,16.25
2023-05-20T10:09:12.821Z,15.13
2023-05-20T10:11:55.886Z,11.10
2023-05-20T10:14:29.097Z,12.48
2023-05-20T10:17:17.705Z,11.20
2023-05-20T10:19:45.420Z,14.63
2023-05-20T10:22:13.897Z,10.93
2023-05-20T10:24:44.948Z,11.15
2023-05-20T10:27:15.553Z,9.98
2023-05-20T10:29:58.355Z,10.55
2023-05-20T10:32:33.415Z,11.77
2023-05-20T10:35:06.116Z,12.57
2023-05-20T10:37:45.433Z,11.38
2023-05-20T10:40:15.183Z,10.07
2023-05-20T10:42:43.389Z,12.50
2023-05-20T10:45:11.467Z,10.73
2023-05-20T10:47:58.953Z,15.18
2023-05-20T10:50:29.080Z,10.82
2023-05-20T10:53:04.674Z,11.33
2023-05-20T10:55:39.893Z,13.43
2023-05-20T10:58:07.605Z,27.35
2023-05-20T11:00:37.305Z,11.52
2023-05-20T11:03:06.831Z,12.93
2023-05-20T11:05:35.405Z,12.20
2023-05-20T11:08:10.714Z,9.65
2023-05-20T11:13:22.054Z,11.65
2023-05-20T11:15:50.345Z,15.63
2023-05-20T11:18:18.948Z,11.50
2023-05-20T11:20:47.530Z,33.53
2023-05-20T11:23:15.780Z,9.27
2023-05-20T11:25:43.616Z,13.05
2023-05-20T11:28:14.668Z,8.35
2023-05-20T11:30:45.388Z,11.32
2023-05-20T11:33:14.604Z,7.72
2023-05-20T11:38:38.341Z,9.95
2023-05-20T11:41:06.391Z,10.13
2023-05-20T11:43:34.294Z,8.38
2023-05-20T11:46:02.525Z,8.73
2023-05-20T11:48:30.125Z,11.63
2023-05-20T11:50:59.931Z,7.88
2023-05-20T11:53:29.187Z,9.60
2023-05-20T11:55:58.506Z,10.13
2023-05-20T11:58:28.091Z,8.55
2023-05-20T12:01:02.295Z,7.85
2023-05-20T12:03:37.518Z,7.68
2023-05-20T12:06:05.579Z,8.93
2023-05-20T12:08:33.199Z,9.23
2023-05-20T12:11:01.114Z,10.30
2023-05-20T12:13:28.786Z,9.00
2023-05-20T12:15:59.137Z,11.75
2023-05-20T12:18:26.791Z,12.27
2023-05-20T12:20:54.444Z,9.60
2023-05-20T12:23:22.077Z,10.95
2023-05-20T12:25:50.135Z,9.60
2023-05-20T12:28:18.616Z,8.52
2023-05-20T12:30:46.304Z,12.27
2023-05-20T12:33:14.017Z,8.73
2023-05-20T12:35:43.515Z,9.68
2023-05-20T12:38:11.280Z,8.30
2023-05-20T12:40:39.067Z,8.55
2023-05-20T12:43:07.100Z,10.25
2023-05-20T12:45:34.750Z,10.50
2023-05-20T12:48:02.597Z,11.82
2023-05-20T12:50:30.226Z,10.73
2023-05-20T12:52:57.801Z,8.40
2023-05-20T12:55:25.442Z,11.90
2023-05-20T12:57:54.427Z,11.82
2023-05-20T13:00:22.214Z,8.88
2023-05-20T13:02:49.907Z,8.82
2023-05-20T13:05:17.547Z,10.93
2023-05-20T13:07:45.222Z,9.48
2023-05-20T13:10:12.827Z,9.80
2023-05-20T13:12:45.840Z,10.63
2023-05-20T13:15:17.759Z,12.65
2023-05-20T13:17:45.583Z,10.18
2023-05-20T13:20:13.564Z,10.82
2023-05-20T13:22:41.191Z,9.10
2023-05-20T13:25:09.623Z,9.77
2023-05-20T13:27:37.232Z,10.82
2023-05-20T13:30:06.305Z,10.52
2023-05-20T13:32:34.050Z,10.10
2023-05-20T13:35:01.661Z,9.18
2023-05-20T13:37:30.044Z,13.45
2023-05-20T13:39:57.601Z,12.80
2023-05-20T13:42:25.248Z,8.02
2023-05-20T13:44:52.882Z,9.68
2023-05-20T13:47:20.565Z,9.18
2023-05-20T13:49:48.244Z,12.18
2023-05-20T13:52:15.936Z,10.40
2023-05-20T13:54:44.721Z,9.20
2023-05-20T13:57:12.469Z,9.68
2023-05-20T13:59:39.987Z,9.85
2023-05-20T14:02:08.317Z,9.90
2023-05-20T14:04:38.282Z,10.18
2023-05-20T14:07:07.807Z,8.90
2023-05-20T14:09:37.133Z,9.02
2023-05-20T14:12:05.832Z,10.98
2023-05-20T14:14:33.509Z,10.90
2023-05-20T14:17:01.101Z,8.80
2023-05-20T14:19:29.184Z,8.85
2023-05-20T14:21:58.876Z,8.93
2023-05-20T14:24:26.795Z,8.48
2023-05-20T14:26:54.352Z,8.52
2023-05-20T14:29:21.932Z,11.82
2023-05-20T14:31:49.660Z,10.75
2023-05-20T14:34:17.291Z,8.90
2023-05-20T14:36:44.948Z,9.85
2023-05-20T14:39:12.543Z,8.98
2023-05-20T14:41:40.098Z,9.73
2023-05-20T14:44:07.681Z,9.35
2023-05-20T14:46:35.365Z,10.40
2023-05-20T14:49:03.112Z,8.52
2023-05-20T14:51:31.464Z,10.98
2023-05-20T14:53:59.153Z,9.85
2023-05-20T14:56:26.976Z,12.40
2023-05-20T14:58:54.628Z,10.60
2023-05-20T15:01:22.297Z,16.10
2023-05-20T15:03:49.932Z,8.55
2023-05-20T15:06:19.031Z,11.73
2023-05-20T15:08:46.795Z,8.55
2023-05-20T15:11:14.414Z,11.45
2023-05-20T15:13:42.074Z,12.50
2023-05-20T15:16:09.913Z,8.30
2023-05-20T15:18:37.596Z,9.65
2023-05-20T15:21:05.593Z,9.80
2023-05-20T15:23:33.233Z,10.05
2023-05-20T15:26:01.064Z,11.63
2023-05-20T15:28:28.660Z,9.65
2023-05-20T15:30:56.649Z,9.57
2023-05-20T15:33:24.627Z,13.70
2023-05-20T15:35:52.276Z,11.90
2023-05-20T15:38:19.874Z,17.70
2023-05-20T15:40:50.285Z,15.07
2023-05-20T15:43:18.270Z,13.50
2023-05-20T15:45:49.697Z,9.48
2023-05-20T15:48:17.381Z,11.57
2023-05-20T15:50:45.310Z,7.57
2023-05-20T15:53:15.529Z,7.43
2023-05-20T15:55:44.885Z,8.57
2023-05-20T15:58:12.797Z,9.38
2023-05-20T16:00:40.541Z,11.88
2023-05-20T16:03:08.512Z,9.43
2023-05-20T16:05:36.792Z,11.40
2023-05-20T16:08:05.928Z,9.48
2023-05-20T16:10:34.865Z,10.43
2023-05-20T16:13:02.976Z,10.70
2023-05-20T16:15:35.597Z,8.65
2023-05-20T16:18:03.382Z,9.60
2023-05-20T16:20:31.123Z,8.68
2023-05-20T16:22:58.825Z,9.95
2023-05-20T16:25:26.425Z,8.27
2023-05-20T16:27:54.091Z,9.38
2023-05-20T16:30:21.658Z,10.05
2023-05-20T16:32:49.328Z,12.35
2023-05-20T16:35:16.971Z,12.27
2023-05-20T16:37:44.830Z,12.25
2023-05-20T16:40:12.742Z,9.80
2023-05-20T16:42:40.464Z,12.10
2023-05-20T16:45:08.648Z,12.60
2023-05-20T16:47:37.030Z,10.80
2023-05-20T16:50:05.309Z,12.93
2023-05-20T16:52:37.885Z,11.05
2023-05-20T16:55:08.119Z,10.55
2023-05-20T16:57:36.019Z,13.32
2023-05-20T17:00:08.351Z,11.18
2023-05-20T17:02:36.201Z,12.05
2023-05-20T17:05:04.458Z,12.98
2023-05-20T17:07:33.530Z,12.88
2023-05-20T17:10:01.566Z,9.88
2023-05-20T17:12:29.452Z,9.88
2023-05-20T17:14:56.996Z,14.63
2023-05-20T17:17:24.796Z,10.38
2023-05-20T17:19:52.391Z,12.95
2023-05-20T17:22:20.029Z,10.82
2023-05-20T17:24:47.559Z,12.65
2023-05-20T17:27:15.156Z,12.10
2023-05-20T17:29:42.769Z,11.45
2023-05-20T17:32:10.469Z,13.35
2023-05-20T17:34:38.427Z,10.65
2023-05-20T17:37:05.942Z,9.40
2023-05-20T17:39:33.902Z,9.02
2023-05-20T17:42:01.369Z,10.40
2023-05-20T17:44:29.343Z,8.25
2023-05-20T17:46:56.841Z,10.77
2023-05-20T17:49:24.373Z,10.88
2023-05-20T17:51:52.011Z,11.57
2023-05-20T17:54:19.562Z,8.80
2023-05-20T17:56:47.795Z,9.43
2023-05-20T17:59:15.553Z,11.98
2023-05-20T18:01:43.155Z,7.82
2023-05-20T18:04:11.445Z,7.20
2023-05-20T18:06:39.130Z,9.88
2023-05-20T18:09:06.720Z,8.77
2023-05-20T18:11:34.555Z,9.70
2023-05-20T18:14:02.785Z,7.55
2023-05-20T18:16:30.928Z,10.45
2023-05-20T18:18:58.716Z,8.88
2023-05-20T18:21:26.659Z,10.57
2023-05-20T18:23:54.515Z,7.82
2023-05-20T18:26:22.686Z,10.23
2023-05-20T18:28:50.293Z,14.48
2023-05-20T18:31:17.974Z,7.32
2023-05-20T18:33:46.039Z,11.20
2023-05-20T18:36:13.744Z,6.78
2023-05-20T18:38:41.883Z,10.55
2023-05-20T18:41:09.707Z,10.82
2023-05-20T18:43:37.296Z,9.43
2023-05-20T18:46:05.058Z,11.18
2023-05-20T18:48:32.772Z,8.27
2023-05-20T18:51:00.480Z,8.15
2023-05-20T18:53:28.048Z,10.00
2023-05-20T18:55:57.099Z,7.82
2023-05-20T18:58:24.790Z,7.30
2023-05-20T19:00:52.879Z,9.43
2023-05-20T19:03:23.287Z,13.00
2023-05-20T19:05:51.424Z,9.38
2023-05-20T19:08:19.082Z,9.88
2023-05-20T19:10:46.668Z,9.13
2023-05-20T19:13:14.311Z,8.05
2023-05-20T19:15:42.290Z,7.78
2023-05-20T19:18:10.191Z,6.55
2023-05-20T19:20:38.222Z,8.88
2023-05-20T19:23:06.160Z,6.65
2023-05-20T19:25:34.262Z,9.05
2023-05-20T19:28:02.285Z,8.77
2023-05-20T19:30:30.652Z,7.70
2023-05-20T19:32:58.539Z,9.18
2023-05-20T19:35:26.098Z,8.88
2023-05-20T19:37:54.198Z,7.18
2023-05-20T19:40:22.163Z,7.90
2023-05-20T19:42:51.808Z,7.95
2023-05-20T19:45:21.988Z,6.18
2023-05-20T19:47:50.547Z,6.65
2023-05-20T19:50:18.663Z,7.28
2023-05-20T19:52:46.686Z,7.65
2023-05-20T19:55:15.039Z,5.65
2023-05-20T19:57:43.902Z,8.55
2023-05-20T20:00:12.149Z,7.10
2023-05-20T20:02:42.772Z,7.97
2023-05-20T20:05:10.239Z,6.80
2023-05-20T20:07:38.010Z,8.18
2023-05-20T20:10:06.180Z,10.38
2023-05-20T20:12:33.840Z,8.75
2023-05-20T20:15:01.400Z,5.30
2023-05-20T20:17:30.306Z,8.82
2023-05-20T20:19:58.066Z,6.80
2023-05-20T20:22:26.209Z,6.90
2023-05-20T20:24:53.725Z,6.88
2023-05-20T20:27:23.771Z,8.30
2023-05-20T20:29:51.516Z,9.48
2023-05-20T20:32:19.143Z,8.40
2023-05-20T20:34:47.157Z,8.60
2023-05-20T20:37:15.257Z,7.43
2023-05-20T20:39:46.846Z,11.00
2023-05-20T20:42:14.652Z,6.65
2023-05-20T20:44:42.726Z,9.75
2023-05-20T20:47:10.382Z,7.65
2023-05-20T20:49:38.102Z,8.27
2023-05-20T20:52:06.256Z,10.38
2023-05-20T20:54:34.230Z,8.65
2023-05-20T20:57:02.800Z,8.65
2023-05-20T20:59:30.435Z,9.00
2023-05-20T21:01:58.560Z,11.63
2023-05-20T21:04:27.883Z,8.32
2023-05-20T21:06:55.703Z,6.38
2023-05-20T21:09:23.561Z,7.13
2023-05-20T21:11:51.200Z,9.10
2023-05-20T21:14:18.767Z,9.68
2023-05-20T21:16:46.561Z,8.98
2023-05-20T21:19:14.433Z,7.82
2023-05-20T21:21:42.080Z,9.90
2023-05-20T21:24:09.689Z,6.95
2023-05-20T21:26:37.383Z,10.50
2023-05-20T21:29:06.104Z,9.13
2023-05-20T21:31:33.769Z,10.15
2023-05-20T21:34:01.372Z,7.47
2023-05-20T21:36:29.023Z,8.50
2023-05-20T21:38:56.809Z,10.13
2023-05-20T21:41:24.512Z,7.25
2023-05-20T21:43:52.065Z,7.05
2023-05-20T21:46:20.130Z,10.18
2023-05-20T21:48:47.661Z,9.73
2023-05-20T21:51:15.555Z,13.10
2023-05-20T21:53:43.649Z,8.77
2023-05-20T21:56:11.169Z,10.40
2023-05-20T21:58:41.330Z,11.55
2023-05-20T22:01:10.152Z,8.10
2023-05-20T22:03:39.981Z,9.60
2023-05-20T22:06:07.854Z,16.38
2023-05-20T22:08:35.620Z,15.10
2023-05-20T22:11:07.367Z,10.63
2023-05-20T22:13:35.873Z,10.05
2023-05-20T22:16:05.029Z,11.93
2023-05-20T22:18:33.049Z,10.55
2023-05-20T22:21:01.223Z,14.10
2023-05-20T22:23:29.467Z,11.13
2023-05-20T22:25:56.971Z,12.07
2023-05-20T22:28:26.321Z,11.82
2023-05-20T22:30:54.853Z,12.07
2023-05-20T22:33:23.019Z,10.82
2023-05-20T22:35:51.529Z,9.65
2023-05-20T22:38:19.642Z,13.05
2023-05-20T22:40:47.243Z,12.93
2023-05-20T22:43:16.554Z,11.63
2023-05-20T22:45:44.291Z,14.32
2023-05-20T22:48:12.447Z,13.15
2023-05-20T22:50:41.438Z,11.48
2023-05-20T22:53:09.055Z,11.65
2023-05-20T22:55:38.797Z,9.23
2023-05-20T22:58:07.989Z,13.50
2023-05-20T23:00:35.872Z,17.23
2023-05-20T23:03:03.572Z,13.75
2023-05-20T23:05:31.839Z,13.23
2023-05-20T23:08:00.172Z,14.13
2023-05-20T23:10:28.132Z,13.00
2023-05-20T23:12:56.253Z,12.30
2023-05-20T23:15:25.316Z,13.75
2023-05-20T23:17:53.000Z,12.10
2023-05-20T23:20:22.282Z,12.77
2023-05-20T23:22:50.362Z,12.63
2023-05-20T23:25:17.898Z,10.10
2023-05-20T23:27:46.031Z,13.40
2023-05-20T23:30:13.896Z,13.20
2023-05-20T23:32:42.565Z,12.75
2023-05-20T23:35:11.852Z,14.13
2023-05-20T23:37:41.045Z,12.18
2023-05-20T23:40:09.237Z,14.15
2023-05-20T23:42:37.148Z,12.70
2023-05-20T23:45:05.957Z,13.63
2023-05-20T23:47:34.367Z,14.05
2023-05-20T23:50:02.265Z,11.73
2023-05-20T23:52:31.867Z,11.43
2023-05-20T23:55:00.419Z,11.73
2023-05-20T23:57:28.125Z,10.70
2023-05-20T23:59:56.173Z,11.90
